Surat Thani, Thailand
Current Conditions -  °F | °C
As of 9:00 PM on Sunday 23 Nov 2014 (Local Time) from VTSB Reporting Station
Light Rain Light Rain  
Wind Chill: 79°   Ceiling: 1600
Heat Index: 83°   Visibility: 4mi
Dew Point: 79°   Wind: 6mph
Humidity: 100%   Direction: 10°N
Pressure: 29.85"   Gusts: NA
Location:  9.14°N, 99.33°E
Report Text: VTSB 231400Z 01005KT 6000 -RA BKN016 OVC120 26/26 Q1011 A2987
Loading
Personal Weather Stations






























Interactive Weather Map New forecast layout! Learn more

10-Day Weather Forecast

Advertisements
Track Severe Weather on mobile